Aeroporto :
LOGIN :

Iscrizione | Disclaimer

   EN    FR    IT 

 










Sommario :    VFR   VFR Marginale   IFR   IFR Intensivo   IFR Molto Intensivo
Visibilità : 
Base nubi : 
>= 8 km
>= 3000ft
5 / 8 km
1000 / 3000 ft
1500m / 5 km
500 / 1000 ft
800 / 1500m
200 / 500 ft
< 800m
< 200 ft
Simboli :   Temporali  Nebbia  Neve Forte  Precipitazioni Forti  Vento > 20 kt
SIGMETs :   Varie  Temporali  Ghiacco  Turbolenza  Onda orograficha  Ceneri Vulcaniche






- Altitudine del aeroporto : 1036 ft
- Codice IATA : CLJ


LRCL - Cluj-Napoca International

ULTIMO METAR :
  • 251630Z 00000KT 5000 BR SCT065 12/12 Q1014 R07/29//95

METARs OBSOLETI :
  • 251600Z VRB01KT 6000 BKN065 12/12 Q1014 R07/29//95
  • 251530Z 00000KT 8000 BKN065 13/12 Q1014 R07/29//95
  • 251500Z 08002KT 9999 SCT065 13/12 Q1014 R07/19//95
  • 251430Z 03003KT 9999 BKN065 13/12 Q1014 R07/19//95
  • 251400Z 06005KT 8000 -RA OVC058 13/12 Q1014 R07/19//95

TAF TAF LRCL
Valido dal 25 a 15 ore il 26 a 00 ore UTC


251400Z 2515/2600 VRB04KT 5000 -RA BR BKN035
BECMG 2519/2521 1500 -RADZ BR BKN005 OVC010
TEMPO 2521/2600 0600 FG VV001



MetMap, La meteo Aeronautica in un colpo d'occhio ! - Copyright ORBIFLY Dicembre 2007 - Disclaimer

ORBIFLY MET'MAP TEAM :

Programmazione e sviluppo : Alexandra Zaïnal
Concezione : Baudouin d'Aumeries
Aiuto per la programmazione : Marc-Olivier Méhu
Supporto tecnico e logistico : Manuel Goepfert
Aiuto per la traduzione : Arnaldo La Scala

Contatto : metmap@orbifly.com




FONTI E CREDITI :

   NOAA